sensor_id;sensor_type;location;lat;lon;timestamp;pressure;altitude;pressure_sealevel;temperature;humidity
141;BME280;65;48.778;9.160;2023-02-28T00:00:51;99250.34;;;-2.12;69.11
141;BME280;65;48.778;9.160;2023-02-28T00:03:37;99256.41;;;-2.02;68.10
141;BME280;65;48.778;9.160;2023-02-28T00:06:23;99249.47;;;-2.12;69.35
141;BME280;65;48.778;9.160;2023-02-28T00:09:09;99253.81;;;-2.07;69.53
141;BME280;65;48.778;9.160;2023-02-28T00:11:55;99250.41;;;-1.92;68.20
141;BME280;65;48.778;9.160;2023-02-28T00:14:41;99254.69;;;-2.06;69.42
141;BME280;65;48.778;9.160;2023-02-28T00:17:26;99252.09;;;-2.03;69.07
141;BME280;65;48.778;9.160;2023-02-28T00:20:13;99241.75;;;-1.96;69.06
141;BME280;65;48.778;9.160;2023-02-28T00:22:59;99254.72;;;-1.99;68.85
141;BME280;65;48.778;9.160;2023-02-28T00:25:45;99246.88;;;-2.12;68.63
141;BME280;65;48.778;9.160;2023-02-28T00:28:31;99246.84;;;-2.20;70.00
141;BME280;65;48.778;9.160;2023-02-28T00:31:16;99247.66;;;-2.30;69.96
141;BME280;65;48.778;9.160;2023-02-28T00:34:02;99247.63;;;-2.32;70.47
141;BME280;65;48.778;9.160;2023-02-28T00:36:48;99247.63;;;-2.35;70.97
141;BME280;65;48.778;9.160;2023-02-28T00:39:37;99256.19;;;-2.46;71.88
141;BME280;65;48.778;9.160;2023-02-28T00:42:47;99260.56;;;-2.35;72.06
141;BME280;65;48.778;9.160;2023-02-28T00:45:32;99254.59;;;-2.25;71.23
141;BME280;65;48.778;9.160;2023-02-28T00:48:18;99247.72;;;-2.22;71.00
141;BME280;65;48.778;9.160;2023-02-28T00:51:04;99252.88;;;-2.22;70.91
141;BME280;65;48.778;9.160;2023-02-28T00:54:02;99243.34;;;-2.31;71.54
141;BME280;65;48.778;9.160;2023-02-28T00:56:48;99246.75;;;-2.35;72.60
141;BME280;65;48.778;9.160;2023-02-28T00:59:34;99251.84;;;-2.49;73.09
141;BME280;65;48.778;9.160;2023-02-28T01:02:21;99252.72;;;-2.47;73.29
141;BME280;65;48.778;9.160;2023-02-28T01:05:08;99251.03;;;-2.39;73.35
141;BME280;65;48.778;9.160;2023-02-28T01:07:53;99249.44;;;-2.23;72.56
141;BME280;65;48.778;9.160;2023-02-28T01:10:39;99244.25;;;-2.25;73.91
141;BME280;65;48.778;9.160;2023-02-28T01:13:25;99242.44;;;-2.35;73.72
141;BME280;65;48.778;9.160;2023-02-28T01:16:11;99239.00;;;-2.32;73.63
141;BME280;65;48.778;9.160;2023-02-28T01:18:57;99240.69;;;-2.39;73.80
141;BME280;65;48.778;9.160;2023-02-28T01:21:43;99245.03;;;-2.35;74.25
141;BME280;65;48.778;9.160;2023-02-28T01:24:29;99238.13;;;-2.34;73.86
141;BME280;65;48.778;9.160;2023-02-28T01:27:15;99237.25;;;-2.36;75.14
141;BME280;65;48.778;9.160;2023-02-28T01:30:02;99240.69;;;-2.39;75.00
141;BME280;65;48.778;9.160;2023-02-28T01:32:47;99247.59;;;-2.41;75.55
141;BME280;65;48.778;9.160;2023-02-28T01:35:34;99242.41;;;-2.41;76.13
141;BME280;65;48.778;9.160;2023-02-28T01:38:20;99237.25;;;-2.38;75.78
141;BME280;65;48.778;9.160;2023-02-28T01:41:07;99234.69;;;-2.32;75.98
141;BME280;65;48.778;9.160;2023-02-28T01:43:59;99241.59;;;-2.32;75.80
141;BME280;65;48.778;9.160;2023-02-28T01:46:48;99237.22;;;-2.42;77.00
141;BME280;65;48.778;9.160;2023-02-28T01:49:34;99249.25;;;-2.49;77.58
141;BME280;65;48.778;9.160;2023-02-28T01:52:20;99238.09;;;-2.43;77.16
141;BME280;65;48.778;9.160;2023-02-28T01:55:08;99234.63;;;-2.42;77.63
141;BME280;65;48.778;9.160;2023-02-28T01:57:58;99233.75;;;-2.46;77.74
141;BME280;65;48.778;9.160;2023-02-28T02:00:45;99224.28;;;-2.44;78.25
141;BME280;65;48.778;9.160;2023-02-28T02:03:31;99221.72;;;-2.38;78.26
141;BME280;65;48.778;9.160;2023-02-28T02:06:17;99220.84;;;-2.37;78.29
141;BME280;65;48.778;9.160;2023-02-28T02:09:03;99221.69;;;-2.41;78.67
141;BME280;65;48.778;9.160;2023-02-28T02:11:49;99223.41;;;-2.44;79.01
141;BME280;65;48.778;9.160;2023-02-28T02:15:00;99214.72;;;-2.54;79.50
141;BME280;65;48.778;9.160;2023-02-28T02:17:50;99213.03;;;-2.52;80.25
141;BME280;65;48.778;9.160;2023-02-28T02:27:03;99197.63;;;-2.28;79.47
141;BME280;65;48.778;9.160;2023-02-28T02:36:47;99202.81;;;-2.25;80.19
141;BME280;65;48.778;9.160;2023-02-28T02:42:28;99199.44;;;-2.05;79.49
141;BME280;65;48.778;9.160;2023-02-28T02:45:22;99197.66;;;-2.17;80.90
141;BME280;65;48.778;9.160;2023-02-28T02:48:12;99203.72;;;-2.16;80.77
141;BME280;65;48.778;9.160;2023-02-28T02:51:01;99197.72;;;-2.06;80.45
141;BME280;65;48.778;9.160;2023-02-28T02:53:54;99199.44;;;-2.08;80.39
141;BME280;65;48.778;9.160;2023-02-28T02:56:42;99205.47;;;-2.11;81.01
141;BME280;65;48.778;9.160;2023-02-28T02:59:30;99198.56;;;-2.09;80.96
141;BME280;65;48.778;9.160;2023-02-28T03:02:16;99194.28;;;-1.90;79.58
141;BME280;65;48.778;9.160;2023-02-28T03:05:08;99196.00;;;-1.95;80.22
141;BME280;65;48.778;9.160;2023-02-28T03:07:58;99197.75;;;-1.88;79.82
141;BME280;65;48.778;9.160;2023-02-28T03:10:47;99206.38;;;-1.95;81.08
141;BME280;65;48.778;9.160;2023-02-28T03:13:45;99213.31;;;-1.83;80.11
141;BME280;65;48.778;9.160;2023-02-28T03:19:52;99205.50;;;-1.93;81.03
141;BME280;65;48.778;9.160;2023-02-28T03:26:02;99208.97;;;-1.94;81.17
141;BME280;65;48.778;9.160;2023-02-28T03:28:55;99212.41;;;-1.96;82.35
141;BME280;65;48.778;9.160;2023-02-28T03:34:42;99202.94;;;-1.91;82.24
141;BME280;65;48.778;9.160;2023-02-28T03:37:33;99204.66;;;-1.90;82.64
141;BME280;65;48.778;9.160;2023-02-28T03:40:25;99199.47;;;-1.92;83.75
141;BME280;65;48.778;9.160;2023-02-28T03:43:24;99200.34;;;-1.82;82.69
141;BME280;65;48.778;9.160;2023-02-28T03:46:15;99201.22;;;-1.86;82.66
141;BME280;65;48.778;9.160;2023-02-28T03:52:02;99204.69;;;-1.82;82.95
141;BME280;65;48.778;9.160;2023-02-28T03:54:53;99199.50;;;-1.81;83.05
141;BME280;65;48.778;9.160;2023-02-28T03:57:48;99198.63;;;-1.78;82.85
141;BME280;65;48.778;9.160;2023-02-28T04:00:40;99196.91;;;-1.79;83.40
141;BME280;65;48.778;9.160;2023-02-28T04:03:28;99198.63;;;-1.77;83.50
141;BME280;65;48.778;9.160;2023-02-28T04:06:17;99196.91;;;-1.76;83.71
141;BME280;65;48.778;9.160;2023-02-28T04:09:05;99200.38;;;-1.77;84.71
141;BME280;65;48.778;9.160;2023-02-28T04:11:52;99208.19;;;-1.73;83.70
141;BME280;65;48.778;9.160;2023-02-28T04:14:38;99206.47;;;-1.68;83.85
141;BME280;65;48.778;9.160;2023-02-28T04:17:23;99202.13;;;-1.70;83.33
141;BME280;65;48.778;9.160;2023-02-28T04:20:09;99201.28;;;-1.65;83.58
141;BME280;65;48.778;9.160;2023-02-28T04:22:57;99202.16;;;-1.69;83.71
141;BME280;65;48.778;9.160;2023-02-28T04:25:42;99202.16;;;-1.67;83.45
141;BME280;65;48.778;9.160;2023-02-28T04:28:29;99207.34;;;-1.63;82.70
141;BME280;65;48.778;9.160;2023-02-28T04:31:15;99202.16;;;-1.61;82.96
141;BME280;65;48.778;9.160;2023-02-28T04:34:03;99200.44;;;-1.53;82.18
141;BME280;65;48.778;9.160;2023-02-28T04:36:49;99205.63;;;-1.54;83.22
141;BME280;65;48.778;9.160;2023-02-28T04:39:36;99196.09;;;-1.62;83.44
141;BME280;65;48.778;9.160;2023-02-28T04:42:22;99199.56;;;-1.55;82.77
141;BME280;65;48.778;9.160;2023-02-28T04:45:08;99196.97;;;-1.50;83.59
141;BME280;65;48.778;9.160;2023-02-28T04:47:55;99193.53;;;-1.52;83.18
141;BME280;65;48.778;9.160;2023-02-28T04:50:41;99196.97;;;-1.47;82.53
141;BME280;65;48.778;9.160;2023-02-28T04:53:28;99205.63;;;-1.51;83.39
141;BME280;65;48.778;9.160;2023-02-28T04:56:16;99193.53;;;-1.45;83.35
141;BME280;65;48.778;9.160;2023-02-28T04:59:07;99196.97;;;-1.50;83.17
141;BME280;65;48.778;9.160;2023-02-28T05:01:53;99205.63;;;-1.48;83.40
141;BME280;65;48.778;9.160;2023-02-28T05:04:39;99203.03;;;-1.48;82.52
141;BME280;65;48.778;9.160;2023-02-28T05:07:24;99201.31;;;-1.49;82.91
141;BME280;65;48.778;9.160;2023-02-28T05:10:11;99191.81;;;-1.49;83.51
141;BME280;65;48.778;9.160;2023-02-28T05:12:57;99202.16;;;-1.40;82.62
141;BME280;65;48.778;9.160;2023-02-28T05:15:42;99200.44;;;-1.41;82.45
141;BME280;65;48.778;9.160;2023-02-28T05:18:28;99197.84;;;-1.45;83.36
141;BME280;65;48.778;9.160;2023-02-28T05:21:32;99196.13;;;-1.40;82.41
141;BME280;65;48.778;9.160;2023-02-28T05:24:18;99203.03;;;-1.35;82.06
141;BME280;65;48.778;9.160;2023-02-28T05:27:09;99203.91;;;-1.39;82.66
141;BME280;65;48.778;9.160;2023-02-28T05:29:56;99202.16;;;-1.37;82.55
141;BME280;65;48.778;9.160;2023-02-28T05:32:42;99206.50;;;-1.45;84.05
141;BME280;65;48.778;9.160;2023-02-28T05:35:30;99208.22;;;-1.42;82.85
141;BME280;65;48.778;9.160;2023-02-28T05:38:16;99211.69;;;-1.37;83.55
141;BME280;65;48.778;9.160;2023-02-28T05:41:10;99202.19;;;-1.34;82.88
141;BME280;65;48.778;9.160;2023-02-28T05:43:57;99204.75;;;-1.41;83.57
141;BME280;65;48.778;9.160;2023-02-28T05:46:42;99216.00;;;-1.33;83.74
141;BME280;65;48.778;9.160;2023-02-28T05:52:28;99214.28;;;-1.39;84.24
141;BME280;65;48.778;9.160;2023-02-28T05:55:15;99209.09;;;-1.37;84.17
141;BME280;65;48.778;9.160;2023-02-28T05:58:01;99221.19;;;-1.35;83.53
141;BME280;65;48.778;9.160;2023-02-28T06:00:47;99218.59;;;-1.33;84.01
141;BME280;65;48.778;9.160;2023-02-28T06:03:33;99222.91;;;-1.32;84.21
141;BME280;65;48.778;9.160;2023-02-28T06:06:19;99217.72;;;-1.29;83.99
141;BME280;65;48.778;9.160;2023-02-28T06:09:04;99209.09;;;-1.17;82.83
141;BME280;65;48.778;9.160;2023-02-28T06:11:50;99218.59;;;-1.19;83.72
141;BME280;65;48.778;9.160;2023-02-28T06:14:36;99222.06;;;-1.28;83.86
141;BME280;65;48.778;9.160;2023-02-28T06:17:22;99211.69;;;-1.28;83.97
141;BME280;65;48.778;9.160;2023-02-28T06:20:08;99222.06;;;-1.25;84.24
141;BME280;65;48.778;9.160;2023-02-28T06:22:56;99223.78;;;-1.19;84.01
141;BME280;65;48.778;9.160;2023-02-28T06:25:47;99221.19;;;-1.19;83.66
141;BME280;65;48.778;9.160;2023-02-28T06:28:33;99230.72;;;-1.14;82.83
141;BME280;65;48.778;9.160;2023-02-28T06:31:19;99230.72;;;-1.14;82.96
141;BME280;65;48.778;9.160;2023-02-28T06:34:05;99236.78;;;-1.09;82.83
141;BME280;65;48.778;9.160;2023-02-28T06:36:51;99235.88;;;-1.23;84.54
141;BME280;65;48.778;9.160;2023-02-28T06:39:37;99239.34;;;-1.18;83.44
141;BME280;65;48.778;9.160;2023-02-28T06:42:24;99246.28;;;-1.12;84.01
141;BME280;65;48.778;9.160;2023-02-28T06:45:14;99239.38;;;-1.06;82.28
141;BME280;65;48.778;9.160;2023-02-28T06:48:00;99238.50;;;-1.09;82.66
141;BME280;65;48.778;9.160;2023-02-28T06:50:45;99246.28;;;-1.03;82.16
141;BME280;65;48.778;9.160;2023-02-28T06:53:32;99248.88;;;-1.03;81.99
141;BME280;65;48.778;9.160;2023-02-28T06:56:19;99243.69;;;-0.92;82.53
141;BME280;65;48.778;9.160;2023-02-28T06:59:05;99248.03;;;-0.98;82.27
141;BME280;65;48.778;9.160;2023-02-28T07:01:51;99254.06;;;-0.89;80.88
141;BME280;65;48.778;9.160;2023-02-28T07:04:37;99253.19;;;-0.84;80.25
141;BME280;65;48.778;9.160;2023-02-28T07:07:25;99243.69;;;-0.94;80.91
141;BME280;65;48.778;9.160;2023-02-28T07:10:11;99250.63;;;-0.91;81.39
141;BME280;65;48.778;9.160;2023-02-28T07:12:58;99262.72;;;-0.86;81.34
141;BME280;65;48.778;9.160;2023-02-28T07:15:44;99264.44;;;-0.83;81.69
141;BME280;65;48.778;9.160;2023-02-28T07:18:30;99267.91;;;-0.78;81.25
141;BME280;65;48.778;9.160;2023-02-28T07:21:16;99264.44;;;-0.74;79.61
141;BME280;65;48.778;9.160;2023-02-28T07:24:02;99260.97;;;-0.79;79.26
141;BME280;65;48.778;9.160;2023-02-28T07:26:48;99269.63;;;-0.77;80.10
141;BME280;65;48.778;9.160;2023-02-28T07:29:33;99265.28;;;-0.69;79.00
141;BME280;65;48.778;9.160;2023-02-28T07:32:19;99263.56;;;-0.67;80.04
141;BME280;65;48.778;9.160;2023-02-28T07:35:05;99268.75;;;-0.66;79.72
141;BME280;65;48.778;9.160;2023-02-28T07:37:51;99259.25;;;-0.68;79.14
141;BME280;65;48.778;9.160;2023-02-28T07:40:37;99271.34;;;-0.58;79.16
141;BME280;65;48.778;9.160;2023-02-28T07:43:23;99275.69;;;-0.51;78.63
141;BME280;65;48.778;9.160;2023-02-28T07:46:10;99265.28;;;-0.45;78.79
141;BME280;65;48.778;9.160;2023-02-28T07:48:57;99268.75;;;-0.49;78.62
141;BME280;65;48.778;9.160;2023-02-28T07:51:44;99275.69;;;-0.48;78.42
141;BME280;65;48.778;9.160;2023-02-28T07:54:30;99279.16;;;-0.53;79.39
141;BME280;65;48.778;9.160;2023-02-28T07:57:17;99283.47;;;-0.48;79.54
141;BME280;65;48.778;9.160;2023-02-28T08:00:04;99277.41;;;-0.41;79.11
141;BME280;65;48.778;9.160;2023-02-28T08:02:50;99266.97;;;-0.24;76.65
141;BME280;65;48.778;9.160;2023-02-28T08:05:40;99267.84;;;-0.25;76.67
141;BME280;65;48.778;9.160;2023-02-28T08:08:25;99281.66;;;-0.20;76.53
141;BME280;65;48.778;9.160;2023-02-28T08:11:15;99279.06;;;-0.20;75.92
141;BME280;65;48.778;9.160;2023-02-28T08:14:01;99281.63;;;-0.09;73.75
141;BME280;65;48.778;9.160;2023-02-28T08:16:47;99285.94;;;0.04;72.82
141;BME280;65;48.778;9.160;2023-02-28T08:19:32;99294.59;;;0.05;72.22
141;BME280;65;48.778;9.160;2023-02-28T08:22:18;99285.09;;;0.04;72.30
141;BME280;65;48.778;9.160;2023-02-28T08:25:04;99279.88;;;-0.03;72.00
141;BME280;65;48.778;9.160;2023-02-28T08:27:52;99283.38;;;0.01;71.48
141;BME280;65;48.778;9.160;2023-02-28T08:30:38;99278.16;;;0.07;71.53
141;BME280;65;48.778;9.160;2023-02-28T08:33:27;99275.53;;;0.10;71.46
141;BME280;65;48.778;9.160;2023-02-28T08:36:12;99281.63;;;0.03;72.96
141;BME280;65;48.778;9.160;2023-02-28T08:38:58;99285.03;;;0.16;71.34
141;BME280;65;48.778;9.160;2023-02-28T08:41:45;99284.16;;;0.20;71.78
141;BME280;65;48.778;9.160;2023-02-28T08:44:31;99278.91;;;0.32;70.48
141;BME280;65;48.778;9.160;2023-02-28T08:47:16;99292.81;;;0.17;70.15
141;BME280;65;48.778;9.160;2023-02-28T08:50:03;99289.41;;;0.09;71.34
141;BME280;65;48.778;9.160;2023-02-28T08:52:48;99291.94;;;0.20;71.11
141;BME280;65;48.778;9.160;2023-02-28T08:55:34;99289.28;;;0.35;70.95
141;BME280;65;48.778;9.160;2023-02-28T08:58:20;99296.22;;;0.36;70.78
141;BME280;65;48.778;9.160;2023-02-28T09:01:17;99293.66;;;0.22;69.91
141;BME280;65;48.778;9.160;2023-02-28T09:04:04;99303.13;;;0.37;69.90
141;BME280;65;48.778;9.160;2023-02-28T09:06:49;99300.47;;;0.51;69.39
141;BME280;65;48.778;9.160;2023-02-28T09:09:35;99300.44;;;0.61;69.29
141;BME280;65;48.778;9.160;2023-02-28T09:12:25;99293.56;;;0.44;70.34
141;BME280;65;48.778;9.160;2023-02-28T09:15:11;99297.81;;;0.57;70.01
141;BME280;65;48.778;9.160;2023-02-28T09:17:57;99303.78;;;0.79;68.18
141;BME280;65;48.778;9.160;2023-02-28T09:20:43;99300.41;;;0.68;67.97
141;BME280;65;48.778;9.160;2023-02-28T09:23:29;99300.34;;;0.78;67.63
141;BME280;65;48.778;9.160;2023-02-28T09:26:20;99301.31;;;0.60;68.32
141;BME280;65;48.778;9.160;2023-02-28T09:29:07;99305.56;;;0.72;67.95
141;BME280;65;48.778;9.160;2023-02-28T09:31:53;99310.69;;;0.86;66.31
141;BME280;65;48.778;9.160;2023-02-28T09:34:39;99306.38;;;0.83;66.64
141;BME280;65;48.778;9.160;2023-02-28T09:37:25;99313.28;;;0.89;67.13
141;BME280;65;48.778;9.160;2023-02-28T09:40:15;99311.47;;;0.97;66.08
141;BME280;65;48.778;9.160;2023-02-28T09:43:04;99320.06;;;1.16;65.64
141;BME280;65;48.778;9.160;2023-02-28T09:46:05;99321.81;;;1.06;65.60
141;BME280;65;48.778;9.160;2023-02-28T09:48:54;99319.22;;;1.08;66.18
141;BME280;65;48.778;9.160;2023-02-28T09:52:02;99326.03;;;1.29;65.78
141;BME280;65;48.778;9.160;2023-02-28T09:54:48;99315.66;;;1.24;66.10
141;BME280;65;48.778;9.160;2023-02-28T09:57:38;99320.81;;;1.29;64.75
141;BME280;65;48.778;9.160;2023-02-28T10:00:33;99316.50;;;1.26;65.09
141;BME280;65;48.778;9.160;2023-02-28T10:03:30;99311.97;;;1.48;64.20
141;BME280;65;48.778;9.160;2023-02-28T10:06:20;99315.31;;;1.62;63.97
141;BME280;65;48.778;9.160;2023-02-28T10:09:32;99318.94;;;1.46;64.40
141;BME280;65;48.778;9.160;2023-02-28T10:16:02;99327.50;;;1.58;64.58
141;BME280;65;48.778;9.160;2023-02-28T10:18:54;99317.69;;;1.88;62.83
141;BME280;65;48.778;9.160;2023-02-28T10:21:49;99331.47;;;1.99;62.11
141;BME280;65;48.778;9.160;2023-02-28T10:24:45;99332.47;;;1.87;64.20
141;BME280;65;48.778;9.160;2023-02-28T10:27:32;99334.84;;;2.07;62.54
141;BME280;65;48.778;9.160;2023-02-28T10:30:18;99339.69;;;2.42;61.04
141;BME280;65;48.778;9.160;2023-02-28T10:33:04;99338.94;;;2.30;60.53
141;BME280;65;48.778;9.160;2023-02-28T10:35:51;99333.53;;;2.48;60.59
141;BME280;65;48.778;9.160;2023-02-28T10:38:39;99333.75;;;2.27;61.74
141;BME280;65;48.778;9.160;2023-02-28T10:41:32;99329.88;;;2.61;59.87
141;BME280;65;48.778;9.160;2023-02-28T10:44:23;99332.19;;;2.82;59.16
141;BME280;65;48.778;9.160;2023-02-28T10:47:15;99325.44;;;2.69;59.28
141;BME280;65;48.778;9.160;2023-02-28T10:50:02;99327.59;;;2.35;58.88
141;BME280;65;48.778;9.160;2023-02-28T10:52:48;99328.75;;;2.08;59.97
141;BME280;65;48.778;9.160;2023-02-28T10:55:34;99316.28;;;2.38;60.35
141;BME280;65;48.778;9.160;2023-02-28T10:58:25;99318.19;;;2.88;58.46
141;BME280;65;48.778;9.160;2023-02-28T11:01:23;99325.44;;;2.68;59.11
141;BME280;65;48.778;9.160;2023-02-28T11:07:18;99318.53;;;2.65;57.28
141;BME280;65;48.778;9.160;2023-02-28T11:10:04;99323.84;;;2.58;58.22
141;BME280;65;48.778;9.160;2023-02-28T11:12:54;99317.94;;;3.08;58.49
141;BME280;65;48.778;9.160;2023-02-28T11:15:41;99323.94;;;3.13;57.30
141;BME280;65;48.778;9.160;2023-02-28T11:24:19;99305.91;;;2.33;59.47
141;BME280;65;48.778;9.160;2023-02-28T11:27:46;99307.31;;;2.59;59.03
141;BME280;65;48.778;9.160;2023-02-28T11:30:38;99302.22;;;2.49;60.29
141;BME280;65;48.778;9.160;2023-02-28T11:36:31;99305.22;;;2.82;57.92
141;BME280;65;48.778;9.160;2023-02-28T11:39:19;99307.78;;;2.90;58.48
141;BME280;65;48.778;9.160;2023-02-28T11:48:34;99301.00;;;2.73;57.96
141;BME280;65;48.778;9.160;2023-02-28T11:54:50;99288.97;;;2.63;58.00
141;BME280;65;48.778;9.160;2023-02-28T12:01:01;99285.53;;;4.18;54.31
141;BME280;65;48.778;9.160;2023-02-28T12:10:25;99285.13;;;5.52;49.91
141;BME280;65;48.778;9.160;2023-02-28T12:19:28;99274.38;;;7.94;45.15
141;BME280;65;48.778;9.160;2023-02-28T12:22:31;99268.72;;;8.54;42.26
141;BME280;65;48.778;9.160;2023-02-28T12:28:38;99268.66;;;9.01;41.06
141;BME280;65;48.778;9.160;2023-02-28T12:31:31;99260.19;;;8.23;41.77
141;BME280;65;48.778;9.160;2023-02-28T12:34:25;99257.94;;;9.49;39.55
141;BME280;65;48.778;9.160;2023-02-28T12:37:38;99255.09;;;9.74;39.26
141;BME280;65;48.778;9.160;2023-02-28T12:40:32;99251.66;;;8.16;41.66
141;BME280;65;48.778;9.160;2023-02-28T12:43:20;99251.69;;;6.56;45.39
141;BME280;65;48.778;9.160;2023-02-28T12:46:12;99248.31;;;5.23;48.58
141;BME280;65;48.778;9.160;2023-02-28T12:49:06;99246.25;;;5.68;49.15
141;BME280;65;48.778;9.160;2023-02-28T12:51:53;99235.63;;;6.95;45.11
141;BME280;65;48.778;9.160;2023-02-28T12:54:56;99233.66;;;7.28;44.24
141;BME280;65;48.778;9.160;2023-02-28T13:10:58;99226.97;;;12.95;32.88
141;BME280;65;48.778;9.160;2023-02-28T13:13:44;99219.56;;;12.53;33.87
141;BME280;65;48.778;9.160;2023-02-28T13:19:57;99232.28;;;12.30;33.29
141;BME280;65;48.778;9.160;2023-02-28T13:22:48;99236.44;;;12.67;32.91
141;BME280;65;48.778;9.160;2023-02-28T13:37:44;99219.75;;;13.13;31.92
141;BME280;65;48.778;9.160;2023-02-28T13:40:33;99208.72;;;14.39;29.80
141;BME280;65;48.778;9.160;2023-02-28T13:49:36;99222.03;;;12.40;32.67
141;BME280;65;48.778;9.160;2023-02-28T13:52:23;99214.16;;;11.54;34.26
141;BME280;65;48.778;9.160;2023-02-28T13:55:25;99216.75;;;11.90;33.14
141;BME280;65;48.778;9.160;2023-02-28T14:01:50;99213.31;;;12.38;33.51
141;BME280;65;48.778;9.160;2023-02-28T14:07:40;99213.88;;;13.23;30.21
141;BME280;65;48.778;9.160;2023-02-28T14:10:33;99208.34;;;11.82;32.74
141;BME280;65;48.778;9.160;2023-02-28T14:13:39;99210.19;;;11.28;34.26
141;BME280;65;48.778;9.160;2023-02-28T14:16:41;99209.25;;;11.98;33.41
141;BME280;65;48.778;9.160;2023-02-28T14:19:31;99208.50;;;11.96;32.96
141;BME280;65;48.778;9.160;2023-02-28T14:25:47;99213.47;;;11.67;33.32
141;BME280;65;48.778;9.160;2023-02-28T14:28:55;99208.34;;;10.75;34.60
141;BME280;65;48.778;9.160;2023-02-28T14:38:23;99211.50;;;10.64;35.51
141;BME280;65;48.778;9.160;2023-02-28T14:41:31;99211.53;;;11.00;35.31
141;BME280;65;48.778;9.160;2023-02-28T14:44:23;99205.97;;;10.88;35.59
141;BME280;65;48.778;9.160;2023-02-28T14:50:37;99205.97;;;11.41;34.46
141;BME280;65;48.778;9.160;2023-02-28T14:53:26;99209.47;;;10.11;36.05
141;BME280;65;48.778;9.160;2023-02-28T14:56:21;99210.47;;;10.09;36.64
141;BME280;65;48.778;9.160;2023-02-28T14:59:43;99205.63;;;9.39;38.40
141;BME280;65;48.778;9.160;2023-02-28T15:02:34;99224.59;;;10.08;36.08
141;BME280;65;48.778;9.160;2023-02-28T15:05:30;99218.22;;;8.88;38.12
141;BME280;65;48.778;9.160;2023-02-28T15:08:16;99227.22;;;8.83;39.58
141;BME280;65;48.778;9.160;2023-02-28T15:11:14;99219.78;;;9.36;39.61
141;BME280;65;48.778;9.160;2023-02-28T15:14:01;99223.53;;;8.87;38.68
141;BME280;65;48.778;9.160;2023-02-28T15:16:52;99220.19;;;8.13;41.63
141;BME280;65;48.778;9.160;2023-02-28T15:19:50;99224.25;;;6.94;43.01
141;BME280;65;48.778;9.160;2023-02-28T15:22:37;99223.28;;;7.50;43.40
141;BME280;65;48.778;9.160;2023-02-28T15:25:24;99214.59;;;7.98;41.27
141;BME280;65;48.778;9.160;2023-02-28T15:28:15;99221.28;;;7.83;41.78
141;BME280;65;48.778;9.160;2023-02-28T15:32:04;99229.53;;;8.45;40.43
141;BME280;65;48.778;9.160;2023-02-28T15:40:24;99223.88;;;6.79;45.56
141;BME280;65;48.778;9.160;2023-02-28T15:43:18;99229.53;;;6.35;46.02
141;BME280;65;48.778;9.160;2023-02-28T15:46:06;99227.28;;;5.92;47.47
141;BME280;65;48.778;9.160;2023-02-28T15:48:55;99226.97;;;5.70;47.91
141;BME280;65;48.778;9.160;2023-02-28T15:51:41;99226.50;;;5.55;48.47
141;BME280;65;48.778;9.160;2023-02-28T15:54:32;99231.41;;;5.34;49.12
141;BME280;65;48.778;9.160;2023-02-28T15:57:27;99230.84;;;5.23;49.68
141;BME280;65;48.778;9.160;2023-02-28T16:00:18;99233.66;;;5.14;49.43
141;BME280;65;48.778;9.160;2023-02-28T16:03:26;99230.44;;;5.03;50.90
141;BME280;65;48.778;9.160;2023-02-28T16:09:15;99236.16;;;4.83;50.60
141;BME280;65;48.778;9.160;2023-02-28T16:12:02;99239.13;;;4.68;51.89
141;BME280;65;48.778;9.160;2023-02-28T16:14:50;99243.59;;;4.61;52.00
141;BME280;65;48.778;9.160;2023-02-28T16:17:38;99240.47;;;4.45;52.25
141;BME280;65;48.778;9.160;2023-02-28T16:20:25;99247.59;;;4.39;52.91
141;BME280;65;48.778;9.160;2023-02-28T16:23:12;99243.41;;;4.30;53.12
141;BME280;65;48.778;9.160;2023-02-28T16:25:58;99244.41;;;4.25;53.33
141;BME280;65;48.778;9.160;2023-02-28T16:28:44;99243.66;;;4.20;53.14
141;BME280;65;48.778;9.160;2023-02-28T16:31:31;99251.47;;;4.21;53.18
141;BME280;65;48.778;9.160;2023-02-28T16:34:19;99248.13;;;4.15;53.81
141;BME280;65;48.778;9.160;2023-02-28T16:37:11;99248.97;;;4.15;53.98
141;BME280;65;48.778;9.160;2023-02-28T16:39:57;99253.56;;;4.02;53.80
141;BME280;65;48.778;9.160;2023-02-28T16:42:44;99254.78;;;3.85;56.27
141;BME280;65;48.778;9.160;2023-02-28T16:45:30;99262.53;;;3.89;54.49
141;BME280;65;48.778;9.160;2023-02-28T16:48:16;99264.50;;;3.78;55.46
141;BME280;65;48.778;9.160;2023-02-28T16:51:02;99268.97;;;3.73;54.82
141;BME280;65;48.778;9.160;2023-02-28T16:53:49;99265.59;;;3.66;55.48
141;BME280;65;48.778;9.160;2023-02-28T16:56:42;99275.28;;;3.61;55.46
141;BME280;65;48.778;9.160;2023-02-28T16:59:29;99276.31;;;3.51;56.20
141;BME280;65;48.778;9.160;2023-02-28T17:02:17;99278.13;;;3.47;56.27
141;BME280;65;48.778;9.160;2023-02-28T17:05:05;99285.06;;;3.48;56.54
141;BME280;65;48.778;9.160;2023-02-28T17:07:51;99280.91;;;3.35;56.66
141;BME280;65;48.778;9.160;2023-02-28T17:10:37;99282.66;;;3.36;56.88
141;BME280;65;48.778;9.160;2023-02-28T17:13:23;99282.81;;;3.27;57.11
141;BME280;65;48.778;9.160;2023-02-28T17:16:30;99285.50;;;3.21;56.98
141;BME280;65;48.778;9.160;2023-02-28T17:19:16;99287.47;;;3.07;58.30
141;BME280;65;48.778;9.160;2023-02-28T17:22:02;99297.31;;;2.90;58.87
141;BME280;65;48.778;9.160;2023-02-28T17:24:48;99296.47;;;2.86;58.72
141;BME280;65;48.778;9.160;2023-02-28T17:27:34;99306.97;;;2.81;59.68
141;BME280;65;48.778;9.160;2023-02-28T17:30:23;99300.09;;;2.76;59.96
141;BME280;65;48.778;9.160;2023-02-28T17:33:09;99302.09;;;2.59;61.02
141;BME280;65;48.778;9.160;2023-02-28T17:35:55;99303.91;;;2.53;60.96
141;BME280;65;48.778;9.160;2023-02-28T17:38:41;99308.25;;;2.53;60.88
141;BME280;65;48.778;9.160;2023-02-28T17:41:27;99313.50;;;2.51;61.05
141;BME280;65;48.778;9.160;2023-02-28T17:44:15;99312.53;;;2.57;60.96
141;BME280;65;48.778;9.160;2023-02-28T17:47:00;99321.34;;;2.50;61.95
141;BME280;65;48.778;9.160;2023-02-28T17:49:46;99328.56;;;2.25;62.61
141;BME280;65;48.778;9.160;2023-02-28T17:52:32;99329.59;;;2.10;63.25
141;BME280;65;48.778;9.160;2023-02-28T17:55:22;99324.47;;;2.03;65.12
141;BME280;65;48.778;9.160;2023-02-28T17:58:09;99326.22;;;2.02;65.54
141;BME280;65;48.778;9.160;2023-02-28T18:04:38;99327.44;;;1.66;67.34
141;BME280;65;48.778;9.160;2023-02-28T18:07:24;99333.59;;;1.57;67.60
141;BME280;65;48.778;9.160;2023-02-28T18:10:15;99338.06;;;1.42;68.33
141;BME280;65;48.778;9.160;2023-02-28T18:13:04;99335.53;;;1.33;69.26
141;BME280;65;48.778;9.160;2023-02-28T18:15:50;99329.50;;;1.29;69.30
141;BME280;65;48.778;9.160;2023-02-28T18:18:36;99339.06;;;1.27;69.37
141;BME280;65;48.778;9.160;2023-02-28T18:21:23;99332.06;;;1.32;69.19
141;BME280;65;48.778;9.160;2023-02-28T18:24:09;99332.09;;;1.29;69.67
141;BME280;65;48.778;9.160;2023-02-28T18:26:55;99329.56;;;1.20;70.43
141;BME280;65;48.778;9.160;2023-02-28T18:29:41;99336.47;;;1.25;70.65